sensor_id;sensor_type;location;lat;lon;timestamp;P1;durP1;ratioP1;P2;durP2;ratioP2
72951;SDS011;61102;51.956;5.878;2023-02-28T00:01:25;3.42;;;0.73;;
72951;SDS011;61102;51.956;5.878;2023-02-28T00:03:51;2.80;;;0.73;;
72951;SDS011;61102;51.956;5.878;2023-02-28T00:09:28;2.60;;;0.68;;
72951;SDS011;61102;51.956;5.878;2023-02-28T00:11:54;2.13;;;0.65;;
72951;SDS011;61102;51.956;5.878;2023-02-28T00:14:20;1.90;;;0.60;;
72951;SDS011;61102;51.956;5.878;2023-02-28T00:19:50;2.10;;;0.60;;
72951;SDS011;61102;51.956;5.878;2023-02-28T00:22:17;1.90;;;0.70;;
72951;SDS011;61102;51.956;5.878;2023-02-28T00:27:11;3.67;;;0.90;;
72951;SDS011;61102;51.956;5.878;2023-02-28T00:29:37;5.25;;;1.63;;
72951;SDS011;61102;51.956;5.878;2023-02-28T00:32:03;5.57;;;1.33;;
72951;SDS011;61102;51.956;5.878;2023-02-28T00:34:35;6.28;;;1.50;;
72951;SDS011;61102;51.956;5.878;2023-02-28T00:37:04;7.25;;;1.25;;
72951;SDS011;61102;51.956;5.878;2023-02-28T00:39:35;3.47;;;1.10;;
72951;SDS011;61102;51.956;5.878;2023-02-28T00:42:02;5.00;;;1.30;;
72951;SDS011;61102;51.956;5.878;2023-02-28T00:44:29;4.82;;;1.23;;
72951;SDS011;61102;51.956;5.878;2023-02-28T00:46:56;3.38;;;1.10;;
72951;SDS011;61102;51.956;5.878;2023-02-28T00:49:24;4.47;;;1.27;;
72951;SDS011;61102;51.956;5.878;2023-02-28T00:51:52;5.35;;;1.13;;
72951;SDS011;61102;51.956;5.878;2023-02-28T00:54:19;3.53;;;1.00;;
72951;SDS011;61102;51.956;5.878;2023-02-28T00:56:47;5.85;;;1.35;;
72951;SDS011;61102;51.956;5.878;2023-02-28T00:59:14;5.05;;;1.50;;
72951;SDS011;61102;51.956;5.878;2023-02-28T01:01:41;6.32;;;1.70;;
72951;SDS011;61102;51.956;5.878;2023-02-28T01:04:11;5.03;;;1.15;;
72951;SDS011;61102;51.956;5.878;2023-02-28T01:06:38;4.65;;;1.38;;
72951;SDS011;61102;51.956;5.878;2023-02-28T01:09:05;7.35;;;1.85;;
72951;SDS011;61102;51.956;5.878;2023-02-28T01:11:32;5.65;;;1.30;;
72951;SDS011;61102;51.956;5.878;2023-02-28T01:13:58;4.22;;;1.10;;
72951;SDS011;61102;51.956;5.878;2023-02-28T01:16:25;6.60;;;1.40;;
72951;SDS011;61102;51.956;5.878;2023-02-28T01:18:52;4.63;;;1.20;;
72951;SDS011;61102;51.956;5.878;2023-02-28T01:21:19;5.35;;;1.50;;
72951;SDS011;61102;51.956;5.878;2023-02-28T01:23:46;8.23;;;1.98;;
72951;SDS011;61102;51.956;5.878;2023-02-28T01:28:40;5.97;;;1.33;;
72951;SDS011;61102;51.956;5.878;2023-02-28T01:31:07;6.30;;;1.45;;
72951;SDS011;61102;51.956;5.878;2023-02-28T01:33:36;6.25;;;1.40;;
72951;SDS011;61102;51.956;5.878;2023-02-28T01:36:25;4.57;;;1.20;;
72951;SDS011;61102;51.956;5.878;2023-02-28T01:38:50;3.35;;;0.90;;
72951;SDS011;61102;51.956;5.878;2023-02-28T01:41:24;3.25;;;1.10;;
72951;SDS011;61102;51.956;5.878;2023-02-28T01:43:56;4.43;;;1.20;;
72951;SDS011;61102;51.956;5.878;2023-02-28T01:46:24;4.43;;;1.05;;
72951;SDS011;61102;51.956;5.878;2023-02-28T01:49:23;4.05;;;1.17;;
72951;SDS011;61102;51.956;5.878;2023-02-28T01:51:47;6.20;;;1.17;;
72951;SDS011;61102;51.956;5.878;2023-02-28T01:54:30;4.32;;;1.10;;
72951;SDS011;61102;51.956;5.878;2023-02-28T01:57:07;2.55;;;0.90;;
72951;SDS011;61102;51.956;5.878;2023-02-28T01:59:39;6.85;;;1.25;;
72951;SDS011;61102;51.956;5.878;2023-02-28T02:02:12;5.05;;;1.10;;
72951;SDS011;61102;51.956;5.878;2023-02-28T02:04:41;3.97;;;0.90;;
72951;SDS011;61102;51.956;5.878;2023-02-28T02:07:18;5.80;;;1.30;;
72951;SDS011;61102;51.956;5.878;2023-02-28T02:09:44;3.05;;;0.80;;
72951;SDS011;61102;51.956;5.878;2023-02-28T02:12:59;3.50;;;0.82;;
72951;SDS011;61102;51.956;5.878;2023-02-28T02:15:03;2.17;;;0.80;;
72951;SDS011;61102;51.956;5.878;2023-02-28T02:17:41;3.40;;;0.77;;
72951;SDS011;61102;51.956;5.878;2023-02-28T02:26:16;3.92;;;1.10;;
72951;SDS011;61102;51.956;5.878;2023-02-28T02:35:47;4.28;;;1.23;;
72951;SDS011;61102;51.956;5.878;2023-02-28T02:38:29;6.60;;;1.70;;
72951;SDS011;61102;51.956;5.878;2023-02-28T02:43:49;5.68;;;1.50;;
72951;SDS011;61102;51.956;5.878;2023-02-28T02:46:25;4.22;;;1.30;;
72951;SDS011;61102;51.956;5.878;2023-02-28T02:49:00;6.15;;;1.30;;
72951;SDS011;61102;51.956;5.878;2023-02-28T02:51:30;4.95;;;1.48;;
72951;SDS011;61102;51.956;5.878;2023-02-28T02:56:46;5.80;;;1.42;;
72951;SDS011;61102;51.956;5.878;2023-02-28T03:01:50;4.32;;;1.13;;
72951;SDS011;61102;51.956;5.878;2023-02-28T03:04:20;4.25;;;1.10;;
72951;SDS011;61102;51.956;5.878;2023-02-28T03:06:50;3.63;;;1.23;;
72951;SDS011;61102;51.956;5.878;2023-02-28T03:09:24;4.85;;;1.23;;
72951;SDS011;61102;51.956;5.878;2023-02-28T03:11:52;3.65;;;1.40;;
72951;SDS011;61102;51.956;5.878;2023-02-28T03:17:30;4.20;;;1.05;;
72951;SDS011;61102;51.956;5.878;2023-02-28T03:25:33;4.20;;;0.90;;
72951;SDS011;61102;51.956;5.878;2023-02-28T03:31:03;4.03;;;1.20;;
72951;SDS011;61102;51.956;5.878;2023-02-28T03:33:42;3.22;;;1.00;;
72951;SDS011;61102;51.956;5.878;2023-02-28T03:36:21;4.30;;;1.30;;
72951;SDS011;61102;51.956;5.878;2023-02-28T03:38:56;4.05;;;1.08;;
72951;SDS011;61102;51.956;5.878;2023-02-28T03:41:34;3.08;;;0.90;;
72951;SDS011;61102;51.956;5.878;2023-02-28T03:44:06;5.30;;;1.50;;
72951;SDS011;61102;51.956;5.878;2023-02-28T03:49:36;6.40;;;1.65;;
72951;SDS011;61102;51.956;5.878;2023-02-28T03:54:37;5.30;;;1.60;;
72951;SDS011;61102;51.956;5.878;2023-02-28T04:00:08;5.05;;;1.42;;
72951;SDS011;61102;51.956;5.878;2023-02-28T04:02:53;3.85;;;1.38;;
72951;SDS011;61102;51.956;5.878;2023-02-28T04:05:20;3.78;;;1.25;;
72951;SDS011;61102;51.956;5.878;2023-02-28T04:07:47;5.70;;;1.70;;
72951;SDS011;61102;51.956;5.878;2023-02-28T04:10:13;3.72;;;1.17;;
72951;SDS011;61102;51.956;5.878;2023-02-28T04:12:41;3.85;;;0.88;;
72951;SDS011;61102;51.956;5.878;2023-02-28T04:15:07;4.03;;;1.00;;
72951;SDS011;61102;51.956;5.878;2023-02-28T04:17:33;2.55;;;0.80;;
72951;SDS011;61102;51.956;5.878;2023-02-28T04:19:59;4.20;;;0.93;;
72951;SDS011;61102;51.956;5.878;2023-02-28T04:22:28;3.20;;;1.00;;
72951;SDS011;61102;51.956;5.878;2023-02-28T04:24:56;5.38;;;1.42;;
72951;SDS011;61102;51.956;5.878;2023-02-28T04:27:21;5.57;;;1.30;;
72951;SDS011;61102;51.956;5.878;2023-02-28T04:29:47;4.60;;;1.50;;
72951;SDS011;61102;51.956;5.878;2023-02-28T04:32:13;3.38;;;1.05;;
72951;SDS011;61102;51.956;5.878;2023-02-28T04:34:39;5.35;;;1.10;;
72951;SDS011;61102;51.956;5.878;2023-02-28T04:37:05;4.78;;;1.13;;
72951;SDS011;61102;51.956;5.878;2023-02-28T04:39:34;3.45;;;1.20;;
72951;SDS011;61102;51.956;5.878;2023-02-28T04:42:02;4.28;;;1.20;;
72951;SDS011;61102;51.956;5.878;2023-02-28T04:44:28;3.53;;;0.90;;
72951;SDS011;61102;51.956;5.878;2023-02-28T04:46:54;4.32;;;1.00;;
72951;SDS011;61102;51.956;5.878;2023-02-28T04:49:21;3.08;;;0.80;;
72951;SDS011;61102;51.956;5.878;2023-02-28T04:51:47;5.18;;;1.10;;
72951;SDS011;61102;51.956;5.878;2023-02-28T04:54:13;3.50;;;0.90;;
72951;SDS011;61102;51.956;5.878;2023-02-28T04:56:39;2.13;;;0.80;;
72951;SDS011;61102;51.956;5.878;2023-02-28T04:59:05;3.25;;;0.90;;
72951;SDS011;61102;51.956;5.878;2023-02-28T05:01:32;3.85;;;0.93;;
72951;SDS011;61102;51.956;5.878;2023-02-28T05:04:00;3.55;;;1.02;;
72951;SDS011;61102;51.956;5.878;2023-02-28T05:06:28;3.75;;;1.00;;
72951;SDS011;61102;51.956;5.878;2023-02-28T05:08:56;2.97;;;1.00;;
72951;SDS011;61102;51.956;5.878;2023-02-28T05:13:51;2.63;;;0.63;;
72951;SDS011;61102;51.956;5.878;2023-02-28T05:16:18;2.60;;;0.80;;
72951;SDS011;61102;51.956;5.878;2023-02-28T05:18:45;2.75;;;0.80;;
72951;SDS011;61102;51.956;5.878;2023-02-28T05:23:56;2.65;;;0.80;;
72951;SDS011;61102;51.956;5.878;2023-02-28T05:26:24;3.03;;;0.70;;
72951;SDS011;61102;51.956;5.878;2023-02-28T05:28:51;3.05;;;0.68;;
72951;SDS011;61102;51.956;5.878;2023-02-28T05:31:17;1.63;;;0.60;;
72951;SDS011;61102;51.956;5.878;2023-02-28T05:33:43;1.77;;;0.60;;
72951;SDS011;61102;51.956;5.878;2023-02-28T05:36:09;4.25;;;0.70;;
72951;SDS011;61102;51.956;5.878;2023-02-28T05:38:36;1.92;;;0.50;;
72951;SDS011;61102;51.956;5.878;2023-02-28T05:41:05;1.20;;;0.50;;
72951;SDS011;61102;51.956;5.878;2023-02-28T05:43:36;2.97;;;0.93;;
72951;SDS011;61102;51.956;5.878;2023-02-28T05:46:03;3.83;;;0.80;;
72951;SDS011;61102;51.956;5.878;2023-02-28T05:48:31;1.98;;;0.68;;
72951;SDS011;61102;51.956;5.878;2023-02-28T05:50:58;4.25;;;0.80;;
72951;SDS011;61102;51.956;5.878;2023-02-28T05:53:24;1.38;;;0.70;;
72951;SDS011;61102;51.956;5.878;2023-02-28T05:55:50;2.28;;;0.70;;
72951;SDS011;61102;51.956;5.878;2023-02-28T05:58:16;2.85;;;0.80;;
72951;SDS011;61102;51.956;5.878;2023-02-28T06:00:42;1.75;;;0.68;;
72951;SDS011;61102;51.956;5.878;2023-02-28T06:03:08;4.85;;;1.15;;
72951;SDS011;61102;51.956;5.878;2023-02-28T06:05:34;2.33;;;0.85;;
72951;SDS011;61102;51.956;5.878;2023-02-28T06:08:01;2.78;;;0.90;;
72951;SDS011;61102;51.956;5.878;2023-02-28T06:10:27;1.75;;;0.70;;
72951;SDS011;61102;51.956;5.878;2023-02-28T06:12:53;1.50;;;0.60;;
72951;SDS011;61102;51.956;5.878;2023-02-28T06:15:19;2.35;;;0.60;;
72951;SDS011;61102;51.956;5.878;2023-02-28T06:17:46;2.47;;;0.77;;
72951;SDS011;61102;51.956;5.878;2023-02-28T06:20:12;2.60;;;0.80;;
72951;SDS011;61102;51.956;5.878;2023-02-28T06:22:38;4.32;;;0.98;;
72951;SDS011;61102;51.956;5.878;2023-02-28T06:25:05;2.05;;;0.70;;
72951;SDS011;61102;51.956;5.878;2023-02-28T06:27:32;2.17;;;0.60;;
72951;SDS011;61102;51.956;5.878;2023-02-28T06:29:59;1.00;;;0.35;;
72951;SDS011;61102;51.956;5.878;2023-02-28T06:32:25;2.33;;;0.68;;
72951;SDS011;61102;51.956;5.878;2023-02-28T06:34:51;1.13;;;0.30;;
72951;SDS011;61102;51.956;5.878;2023-02-28T06:37:17;1.60;;;0.57;;
72951;SDS011;61102;51.956;5.878;2023-02-28T06:39:43;2.30;;;0.60;;
72951;SDS011;61102;51.956;5.878;2023-02-28T06:42:10;1.10;;;0.50;;
72951;SDS011;61102;51.956;5.878;2023-02-28T06:44:36;1.50;;;0.57;;
72951;SDS011;61102;51.956;5.878;2023-02-28T06:47:03;2.75;;;0.70;;
72951;SDS011;61102;51.956;5.878;2023-02-28T06:49:30;2.95;;;0.90;;
72951;SDS011;61102;51.956;5.878;2023-02-28T06:51:57;2.50;;;0.60;;
72951;SDS011;61102;51.956;5.878;2023-02-28T06:54:24;3.00;;;0.70;;
72951;SDS011;61102;51.956;5.878;2023-02-28T06:56:50;3.30;;;0.73;;
72951;SDS011;61102;51.956;5.878;2023-02-28T07:02:45;1.92;;;0.70;;
72951;SDS011;61102;51.956;5.878;2023-02-28T07:05:12;3.90;;;1.20;;
72951;SDS011;61102;51.956;5.878;2023-02-28T07:07:39;3.05;;;0.93;;
72951;SDS011;61102;51.956;5.878;2023-02-28T07:10:09;7.53;;;1.20;;
72951;SDS011;61102;51.956;5.878;2023-02-28T07:12:37;2.03;;;0.70;;
72951;SDS011;61102;51.956;5.878;2023-02-28T07:15:04;4.85;;;0.95;;
72951;SDS011;61102;51.956;5.878;2023-02-28T07:17:31;4.45;;;0.80;;
72951;SDS011;61102;51.956;5.878;2023-02-28T07:19:57;4.25;;;1.00;;
72951;SDS011;61102;51.956;5.878;2023-02-28T07:22:23;3.70;;;1.05;;
72951;SDS011;61102;51.956;5.878;2023-02-28T07:24:50;1.95;;;0.70;;
72951;SDS011;61102;51.956;5.878;2023-02-28T07:27:17;3.45;;;1.00;;
72951;SDS011;61102;51.956;5.878;2023-02-28T07:29:49;1.48;;;0.55;;
72951;SDS011;61102;51.956;5.878;2023-02-28T07:32:15;2.47;;;0.82;;
72951;SDS011;61102;51.956;5.878;2023-02-28T07:34:44;4.25;;;1.17;;
72951;SDS011;61102;51.956;5.878;2023-02-28T07:37:10;5.70;;;1.30;;
72951;SDS011;61102;51.956;5.878;2023-02-28T07:39:36;3.85;;;1.10;;
72951;SDS011;61102;51.956;5.878;2023-02-28T07:42:06;2.25;;;0.70;;
72951;SDS011;61102;51.956;5.878;2023-02-28T07:44:34;2.28;;;0.60;;
72951;SDS011;61102;51.956;5.878;2023-02-28T07:47:09;3.80;;;0.80;;
72951;SDS011;61102;51.956;5.878;2023-02-28T07:49:36;2.90;;;0.70;;
72951;SDS011;61102;51.956;5.878;2023-02-28T07:52:03;2.03;;;0.70;;
72951;SDS011;61102;51.956;5.878;2023-02-28T07:54:30;3.33;;;1.00;;
72951;SDS011;61102;51.956;5.878;2023-02-28T07:56:57;3.97;;;1.10;;
72951;SDS011;61102;51.956;5.878;2023-02-28T07:59:23;3.58;;;1.25;;
72951;SDS011;61102;51.956;5.878;2023-02-28T08:01:49;5.07;;;1.10;;
72951;SDS011;61102;51.956;5.878;2023-02-28T08:04:16;5.75;;;1.38;;
72951;SDS011;61102;51.956;5.878;2023-02-28T08:06:43;2.40;;;0.70;;
72951;SDS011;61102;51.956;5.878;2023-02-28T08:09:09;6.70;;;1.33;;
72951;SDS011;61102;51.956;5.878;2023-02-28T08:11:36;3.75;;;1.00;;
72951;SDS011;61102;51.956;5.878;2023-02-28T08:14:02;4.53;;;1.10;;
72951;SDS011;61102;51.956;5.878;2023-02-28T08:16:28;3.67;;;1.27;;
72951;SDS011;61102;51.956;5.878;2023-02-28T08:18:55;2.97;;;0.90;;
72951;SDS011;61102;51.956;5.878;2023-02-28T08:21:21;3.58;;;1.00;;
72951;SDS011;61102;51.956;5.878;2023-02-28T08:23:48;3.20;;;0.93;;
72951;SDS011;61102;51.956;5.878;2023-02-28T08:26:16;3.92;;;1.20;;
72951;SDS011;61102;51.956;5.878;2023-02-28T08:28:43;4.15;;;1.08;;
72951;SDS011;61102;51.956;5.878;2023-02-28T08:31:10;2.85;;;0.80;;
72951;SDS011;61102;51.956;5.878;2023-02-28T08:33:39;2.70;;;0.70;;
72951;SDS011;61102;51.956;5.878;2023-02-28T08:36:06;2.58;;;0.82;;
72951;SDS011;61102;51.956;5.878;2023-02-28T08:38:33;2.15;;;0.80;;
72951;SDS011;61102;51.956;5.878;2023-02-28T08:41:00;2.30;;;0.80;;
72951;SDS011;61102;51.956;5.878;2023-02-28T08:43:28;3.00;;;0.90;;
72951;SDS011;61102;51.956;5.878;2023-02-28T08:45:55;1.50;;;0.60;;
72951;SDS011;61102;51.956;5.878;2023-02-28T08:48:25;3.45;;;0.80;;
72951;SDS011;61102;51.956;5.878;2023-02-28T08:50:59;3.55;;;0.90;;
72951;SDS011;61102;51.956;5.878;2023-02-28T08:53:30;2.17;;;0.60;;
72951;SDS011;61102;51.956;5.878;2023-02-28T08:55:58;2.88;;;0.90;;
72951;SDS011;61102;51.956;5.878;2023-02-28T08:58:35;2.40;;;0.70;;
72951;SDS011;61102;51.956;5.878;2023-02-28T09:01:07;3.28;;;0.70;;
72951;SDS011;61102;51.956;5.878;2023-02-28T09:03:40;3.05;;;0.90;;
72951;SDS011;61102;51.956;5.878;2023-02-28T09:06:07;2.97;;;0.70;;
72951;SDS011;61102;51.956;5.878;2023-02-28T09:08:35;3.58;;;0.70;;
72951;SDS011;61102;51.956;5.878;2023-02-28T09:11:02;3.50;;;1.10;;
72951;SDS011;61102;51.956;5.878;2023-02-28T09:13:28;1.88;;;0.68;;
72951;SDS011;61102;51.956;5.878;2023-02-28T09:15:59;3.00;;;0.80;;
72951;SDS011;61102;51.956;5.878;2023-02-28T09:18:26;2.60;;;0.75;;
72951;SDS011;61102;51.956;5.878;2023-02-28T09:20:52;3.80;;;0.88;;
72951;SDS011;61102;51.956;5.878;2023-02-28T09:23:18;3.47;;;0.52;;
72951;SDS011;61102;51.956;5.878;2023-02-28T09:25:46;2.63;;;0.75;;
72951;SDS011;61102;51.956;5.878;2023-02-28T09:28:16;1.40;;;0.57;;
72951;SDS011;61102;51.956;5.878;2023-02-28T09:30:47;2.20;;;0.60;;
72951;SDS011;61102;51.956;5.878;2023-02-28T09:33:15;2.90;;;0.80;;
72951;SDS011;61102;51.956;5.878;2023-02-28T09:35:42;3.10;;;0.73;;
72951;SDS011;61102;51.956;5.878;2023-02-28T09:38:09;3.50;;;0.60;;
72951;SDS011;61102;51.956;5.878;2023-02-28T09:41:19;4.57;;;0.93;;
72951;SDS011;61102;51.956;5.878;2023-02-28T09:43:33;3.75;;;0.70;;
72951;SDS011;61102;51.956;5.878;2023-02-28T09:48:51;3.63;;;0.70;;
72951;SDS011;61102;51.956;5.878;2023-02-28T09:54:02;2.63;;;0.80;;
72951;SDS011;61102;51.956;5.878;2023-02-28T10:04:47;2.17;;;0.60;;
72951;SDS011;61102;51.956;5.878;2023-02-28T10:10:14;1.35;;;0.60;;
72951;SDS011;61102;51.956;5.878;2023-02-28T10:12:55;1.10;;;0.50;;
72951;SDS011;61102;51.956;5.878;2023-02-28T10:15:25;1.55;;;0.60;;
72951;SDS011;61102;51.956;5.878;2023-02-28T10:17:56;2.40;;;0.65;;
72951;SDS011;61102;51.956;5.878;2023-02-28T10:20:25;5.57;;;0.90;;
72951;SDS011;61102;51.956;5.878;2023-02-28T10:23:11;3.08;;;0.70;;
72951;SDS011;61102;51.956;5.878;2023-02-28T10:25:44;2.92;;;0.82;;
72951;SDS011;61102;51.956;5.878;2023-02-28T10:28:16;2.63;;;0.60;;
72951;SDS011;61102;51.956;5.878;2023-02-28T10:30:47;3.00;;;0.70;;
72951;SDS011;61102;51.956;5.878;2023-02-28T10:33:22;2.67;;;0.80;;
72951;SDS011;61102;51.956;5.878;2023-02-28T10:36:02;2.55;;;0.70;;
72951;SDS011;61102;51.956;5.878;2023-02-28T10:38:33;2.05;;;0.60;;
72951;SDS011;61102;51.956;5.878;2023-02-28T10:41:12;3.08;;;0.80;;
72951;SDS011;61102;51.956;5.878;2023-02-28T10:43:40;1.50;;;0.60;;
72951;SDS011;61102;51.956;5.878;2023-02-28T10:48:44;1.58;;;0.60;;
72951;SDS011;61102;51.956;5.878;2023-02-28T10:51:26;1.98;;;0.60;;
72951;SDS011;61102;51.956;5.878;2023-02-28T10:54:01;1.40;;;0.45;;
72951;SDS011;61102;51.956;5.878;2023-02-28T10:56:29;3.10;;;0.70;;
72951;SDS011;61102;51.956;5.878;2023-02-28T11:01:35;2.35;;;0.63;;
72951;SDS011;61102;51.956;5.878;2023-02-28T11:07:02;2.08;;;0.57;;
72951;SDS011;61102;51.956;5.878;2023-02-28T11:09:44;1.85;;;0.63;;
72951;SDS011;61102;51.956;5.878;2023-02-28T11:15:01;3.22;;;0.70;;
72951;SDS011;61102;51.956;5.878;2023-02-28T11:17:31;1.13;;;0.45;;
72951;SDS011;61102;51.956;5.878;2023-02-28T11:19:59;1.73;;;0.60;;
72951;SDS011;61102;51.956;5.878;2023-02-28T11:22:30;2.60;;;0.73;;
72951;SDS011;61102;51.956;5.878;2023-02-28T11:25:00;3.63;;;0.80;;
72951;SDS011;61102;51.956;5.878;2023-02-28T11:29:59;1.75;;;0.65;;
72951;SDS011;61102;51.956;5.878;2023-02-28T11:32:30;2.50;;;0.70;;
72951;SDS011;61102;51.956;5.878;2023-02-28T11:37:29;3.10;;;0.80;;
72951;SDS011;61102;51.956;5.878;2023-02-28T11:39:57;2.72;;;0.80;;
72951;SDS011;61102;51.956;5.878;2023-02-28T11:58:33;2.78;;;0.90;;
72951;SDS011;61102;51.956;5.878;2023-02-28T12:01:31;3.70;;;1.00;;
72951;SDS011;61102;51.956;5.878;2023-02-28T12:04:07;3.60;;;1.00;;
72951;SDS011;61102;51.956;5.878;2023-02-28T12:20:38;3.63;;;0.80;;
72951;SDS011;61102;51.956;5.878;2023-02-28T12:23:21;3.35;;;0.98;;
72951;SDS011;61102;51.956;5.878;2023-02-28T12:28:58;2.63;;;0.70;;
72951;SDS011;61102;51.956;5.878;2023-02-28T12:31:46;1.92;;;0.63;;
72951;SDS011;61102;51.956;5.878;2023-02-28T12:34:18;3.70;;;1.27;;
72951;SDS011;61102;51.956;5.878;2023-02-28T12:36:47;3.90;;;0.90;;
72951;SDS011;61102;51.956;5.878;2023-02-28T12:39:28;3.05;;;0.90;;
72951;SDS011;61102;51.956;5.878;2023-02-28T12:41:59;2.35;;;0.80;;
72951;SDS011;61102;51.956;5.878;2023-02-28T12:44:32;2.90;;;0.90;;
72951;SDS011;61102;51.956;5.878;2023-02-28T12:47:05;4.05;;;1.13;;
72951;SDS011;61102;51.956;5.878;2023-02-28T12:49:42;3.50;;;0.95;;
72951;SDS011;61102;51.956;5.878;2023-02-28T12:54:53;3.20;;;1.00;;
72951;SDS011;61102;51.956;5.878;2023-02-28T12:57:39;4.13;;;1.27;;
72951;SDS011;61102;51.956;5.878;2023-02-28T13:05:14;3.83;;;1.13;;
72951;SDS011;61102;51.956;5.878;2023-02-28T13:10:48;3.92;;;1.08;;
72951;SDS011;61102;51.956;5.878;2023-02-28T13:13:22;2.55;;;0.90;;
72951;SDS011;61102;51.956;5.878;2023-02-28T13:15:59;5.03;;;1.10;;
72951;SDS011;61102;51.956;5.878;2023-02-28T13:18:34;2.72;;;0.90;;
72951;SDS011;61102;51.956;5.878;2023-02-28T13:21:08;1.67;;;0.60;;
72951;SDS011;61102;51.956;5.878;2023-02-28T13:24:07;5.05;;;0.98;;
72951;SDS011;61102;51.956;5.878;2023-02-28T13:29:08;4.35;;;1.40;;
72951;SDS011;61102;51.956;5.878;2023-02-28T13:34:31;4.03;;;1.00;;
72951;SDS011;61102;51.956;5.878;2023-02-28T13:42:22;3.20;;;0.90;;
72951;SDS011;61102;51.956;5.878;2023-02-28T13:47:30;1.35;;;0.60;;
72951;SDS011;61102;51.956;5.878;2023-02-28T14:06:54;4.68;;;0.75;;
72951;SDS011;61102;51.956;5.878;2023-02-28T14:09:35;3.55;;;0.90;;
72951;SDS011;61102;51.956;5.878;2023-02-28T14:17:59;2.60;;;0.80;;
72951;SDS011;61102;51.956;5.878;2023-02-28T14:20:29;1.95;;;0.80;;
72951;SDS011;61102;51.956;5.878;2023-02-28T14:23:03;1.33;;;0.70;;
72951;SDS011;61102;51.956;5.878;2023-02-28T14:31:22;5.22;;;1.10;;
72951;SDS011;61102;51.956;5.878;2023-02-28T14:36:33;3.30;;;1.00;;
72951;SDS011;61102;51.956;5.878;2023-02-28T14:39:06;3.03;;;0.80;;
72951;SDS011;61102;51.956;5.878;2023-02-28T14:41:38;4.03;;;1.10;;
72951;SDS011;61102;51.956;5.878;2023-02-28T14:44:16;2.85;;;0.88;;
72951;SDS011;61102;51.956;5.878;2023-02-28T14:46:45;3.33;;;0.95;;
72951;SDS011;61102;51.956;5.878;2023-02-28T14:49:23;3.00;;;0.88;;
72951;SDS011;61102;51.956;5.878;2023-02-28T14:51:50;1.70;;;0.60;;
72951;SDS011;61102;51.956;5.878;2023-02-28T14:54:38;1.52;;;0.63;;
72951;SDS011;61102;51.956;5.878;2023-02-28T14:57:05;2.13;;;0.77;;
72951;SDS011;61102;51.956;5.878;2023-02-28T14:59:33;3.88;;;0.70;;
72951;SDS011;61102;51.956;5.878;2023-02-28T15:04:56;2.38;;;0.70;;
72951;SDS011;61102;51.956;5.878;2023-02-28T15:07:25;2.58;;;0.85;;
72951;SDS011;61102;51.956;5.878;2023-02-28T15:10:08;4.47;;;1.30;;
72951;SDS011;61102;51.956;5.878;2023-02-28T15:15:25;2.97;;;0.80;;
72951;SDS011;61102;51.956;5.878;2023-02-28T15:18:00;4.15;;;1.08;;
72951;SDS011;61102;51.956;5.878;2023-02-28T15:20:31;3.70;;;1.10;;
72951;SDS011;61102;51.956;5.878;2023-02-28T15:22:58;4.10;;;0.82;;
72951;SDS011;61102;51.956;5.878;2023-02-28T15:25:25;3.92;;;0.80;;
72951;SDS011;61102;51.956;5.878;2023-02-28T15:27:53;3.55;;;1.00;;
72951;SDS011;61102;51.956;5.878;2023-02-28T15:30:24;3.83;;;0.90;;
72951;SDS011;61102;51.956;5.878;2023-02-28T15:33:52;4.03;;;0.90;;
72951;SDS011;61102;51.956;5.878;2023-02-28T15:36:04;2.97;;;0.82;;
72951;SDS011;61102;51.956;5.878;2023-02-28T15:38:33;5.20;;;1.30;;
72951;SDS011;61102;51.956;5.878;2023-02-28T15:41:00;2.85;;;0.85;;
72951;SDS011;61102;51.956;5.878;2023-02-28T15:43:30;5.13;;;0.80;;
72951;SDS011;61102;51.956;5.878;2023-02-28T15:46:10;2.50;;;0.65;;
72951;SDS011;61102;51.956;5.878;2023-02-28T15:48:43;4.38;;;1.27;;
72951;SDS011;61102;51.956;5.878;2023-02-28T15:51:17;2.95;;;0.88;;
72951;SDS011;61102;51.956;5.878;2023-02-28T15:53:54;4.13;;;1.00;;
72951;SDS011;61102;51.956;5.878;2023-02-28T15:56:28;4.63;;;1.00;;
72951;SDS011;61102;51.956;5.878;2023-02-28T15:58:56;3.38;;;0.93;;
72951;SDS011;61102;51.956;5.878;2023-02-28T16:01:26;3.03;;;0.60;;
72951;SDS011;61102;51.956;5.878;2023-02-28T16:03:59;4.10;;;0.90;;
72951;SDS011;61102;51.956;5.878;2023-02-28T16:06:35;4.63;;;1.10;;
72951;SDS011;61102;51.956;5.878;2023-02-28T16:09:03;2.95;;;0.95;;
72951;SDS011;61102;51.956;5.878;2023-02-28T16:11:31;2.42;;;0.75;;
72951;SDS011;61102;51.956;5.878;2023-02-28T16:14:00;3.08;;;0.75;;
72951;SDS011;61102;51.956;5.878;2023-02-28T16:16:26;2.70;;;0.85;;
72951;SDS011;61102;51.956;5.878;2023-02-28T16:18:52;4.45;;;1.10;;
72951;SDS011;61102;51.956;5.878;2023-02-28T16:21:19;5.63;;;1.15;;
72951;SDS011;61102;51.956;5.878;2023-02-28T16:23:45;3.45;;;0.88;;
72951;SDS011;61102;51.956;5.878;2023-02-28T16:26:16;5.30;;;1.08;;
72951;SDS011;61102;51.956;5.878;2023-02-28T16:28:45;4.72;;;1.60;;
72951;SDS011;61102;51.956;5.878;2023-02-28T16:31:11;5.43;;;1.75;;
72951;SDS011;61102;51.956;5.878;2023-02-28T16:33:42;5.68;;;1.30;;
72951;SDS011;61102;51.956;5.878;2023-02-28T16:36:17;4.00;;;1.17;;
72951;SDS011;61102;51.956;5.878;2023-02-28T16:38:45;4.60;;;1.30;;
72951;SDS011;61102;51.956;5.878;2023-02-28T16:41:12;4.32;;;1.10;;
72951;SDS011;61102;51.956;5.878;2023-02-28T16:43:48;3.80;;;1.10;;
72951;SDS011;61102;51.956;5.878;2023-02-28T16:46:16;3.72;;;1.10;;
72951;SDS011;61102;51.956;5.878;2023-02-28T16:48:43;4.82;;;1.50;;
72951;SDS011;61102;51.956;5.878;2023-02-28T16:51:13;3.03;;;1.20;;
72951;SDS011;61102;51.956;5.878;2023-02-28T16:53:41;4.43;;;1.40;;
72951;SDS011;61102;51.956;5.878;2023-02-28T16:56:15;4.35;;;1.13;;
72951;SDS011;61102;51.956;5.878;2023-02-28T16:58:43;2.60;;;0.80;;
72951;SDS011;61102;51.956;5.878;2023-02-28T17:01:10;4.15;;;1.40;;
72951;SDS011;61102;51.956;5.878;2023-02-28T17:03:36;4.03;;;1.20;;
72951;SDS011;61102;51.956;5.878;2023-02-28T17:06:03;2.70;;;0.80;;
72951;SDS011;61102;51.956;5.878;2023-02-28T17:08:30;3.22;;;0.82;;
72951;SDS011;61102;51.956;5.878;2023-02-28T17:10:58;5.35;;;1.70;;
72951;SDS011;61102;51.956;5.878;2023-02-28T17:13:24;3.83;;;1.10;;
72951;SDS011;61102;51.956;5.878;2023-02-28T17:15:50;3.92;;;0.90;;
72951;SDS011;61102;51.956;5.878;2023-02-28T17:18:17;3.03;;;0.85;;
72951;SDS011;61102;51.956;5.878;2023-02-28T17:20:47;5.15;;;0.93;;
72951;SDS011;61102;51.956;5.878;2023-02-28T17:23:14;1.83;;;0.73;;
72951;SDS011;61102;51.956;5.878;2023-02-28T17:25:40;4.07;;;1.10;;
72951;SDS011;61102;51.956;5.878;2023-02-28T17:28:06;3.60;;;0.90;;
72951;SDS011;61102;51.956;5.878;2023-02-28T17:33:00;3.00;;;0.93;;
72951;SDS011;61102;51.956;5.878;2023-02-28T17:35:26;3.67;;;0.93;;
72951;SDS011;61102;51.956;5.878;2023-02-28T17:37:55;4.55;;;1.08;;
72951;SDS011;61102;51.956;5.878;2023-02-28T17:40:22;4.93;;;1.20;;
72951;SDS011;61102;51.956;5.878;2023-02-28T17:42:49;4.03;;;1.10;;
72951;SDS011;61102;51.956;5.878;2023-02-28T17:45:17;4.45;;;1.17;;
72951;SDS011;61102;51.956;5.878;2023-02-28T17:47:45;6.22;;;1.65;;
72951;SDS011;61102;51.956;5.878;2023-02-28T17:50:14;3.60;;;1.05;;
72951;SDS011;61102;51.956;5.878;2023-02-28T17:52:42;4.35;;;0.90;;
72951;SDS011;61102;51.956;5.878;2023-02-28T17:55:08;2.45;;;0.73;;
72951;SDS011;61102;51.956;5.878;2023-02-28T17:57:35;4.63;;;1.05;;
72951;SDS011;61102;51.956;5.878;2023-02-28T18:00:01;5.70;;;1.75;;
72951;SDS011;61102;51.956;5.878;2023-02-28T18:02:37;6.22;;;1.50;;
72951;SDS011;61102;51.956;5.878;2023-02-28T18:05:03;6.10;;;1.40;;
72951;SDS011;61102;51.956;5.878;2023-02-28T18:07:30;5.70;;;1.63;;
72951;SDS011;61102;51.956;5.878;2023-02-28T18:09:56;4.28;;;1.23;;
72951;SDS011;61102;51.956;5.878;2023-02-28T18:12:22;5.38;;;1.27;;
72951;SDS011;61102;51.956;5.878;2023-02-28T18:14:48;3.35;;;0.90;;